sensor_id;sensor_type;location;lat;lon;timestamp;pressure;altitude;pressure_sealevel;temperature;humidity
49585;BME280;35491;49.142;9.210;2023-02-28T09:18:40;100798.28;;;2.49;52.34
49585;BME280;35491;49.142;9.210;2023-02-28T09:19:44;100795.06;;;2.43;51.85
49585;BME280;35491;49.142;9.210;2023-02-28T09:20:48;100797.09;;;2.55;51.56
49585;BME280;35491;49.142;9.210;2023-02-28T09:21:50;100788.34;;;2.55;51.36
49585;BME280;35491;49.142;9.210;2023-02-28T09:22:54;100794.31;;;2.58;51.12
49585;BME280;35491;49.142;9.210;2023-02-28T09:23:56;100788.25;;;2.56;51.44
49585;BME280;35491;49.142;9.210;2023-02-28T09:24:59;100793.47;;;2.58;51.37
49585;BME280;35491;49.142;9.210;2023-02-28T09:26:03;100799.59;;;2.76;51.33
49585;BME280;35491;49.142;9.210;2023-02-28T09:27:05;100791.53;;;2.79;50.61
49585;BME280;35491;49.142;9.210;2023-02-28T09:28:09;100798.91;;;2.72;50.59
49585;BME280;35491;49.142;9.210;2023-02-28T09:29:12;100792.31;;;2.63;50.66
49585;BME280;35491;49.142;9.210;2023-02-28T09:30:17;100803.25;;;2.73;51.14
49585;BME280;35491;49.142;9.210;2023-02-28T09:31:22;100795.91;;;2.97;50.64
49585;BME280;35491;49.142;9.210;2023-02-28T09:32:26;100795.28;;;3.27;50.61
49585;BME280;35491;49.142;9.210;2023-02-28T09:33:30;100797.59;;;3.34;49.53
49585;BME280;35491;49.142;9.210;2023-02-28T09:34:34;100789.28;;;3.24;49.62
49585;BME280;35491;49.142;9.210;2023-02-28T09:35:39;100793.53;;;3.44;49.83
49585;BME280;35491;49.142;9.210;2023-02-28T09:36:41;100793.81;;;3.55;49.23
49585;BME280;35491;49.142;9.210;2023-02-28T09:37:45;100788.81;;;3.67;49.05
49585;BME280;35491;49.142;9.210;2023-02-28T09:38:47;100789.22;;;3.59;48.51
49585;BME280;35491;49.142;9.210;2023-02-28T09:39:52;100797.88;;;3.45;48.49
49585;BME280;35491;49.142;9.210;2023-02-28T09:40:56;100795.50;;;3.40;48.61
49585;BME280;35491;49.142;9.210;2023-02-28T09:41:58;100789.66;;;3.34;48.62
49585;BME280;35491;49.142;9.210;2023-02-28T09:43:03;100787.66;;;3.04;49.18
49585;BME280;35491;49.142;9.210;2023-02-28T09:44:06;100804.28;;;3.06;49.74
49585;BME280;35491;49.142;9.210;2023-02-28T09:45:16;100793.41;;;3.12;49.39
49585;BME280;35491;49.142;9.210;2023-02-28T09:46:28;100800.63;;;3.26;49.18
49585;BME280;35491;49.142;9.210;2023-02-28T09:47:33;100799.69;;;3.45;48.69
49585;BME280;35491;49.142;9.210;2023-02-28T09:48:39;100793.19;;;3.50;48.47
49585;BME280;35491;49.142;9.210;2023-02-28T09:49:46;100798.13;;;3.40;48.61
49585;BME280;35491;49.142;9.210;2023-02-28T09:50:51;100799.16;;;3.38;48.41
49585;BME280;35491;49.142;9.210;2023-02-28T09:51:55;100804.59;;;3.35;48.61
49585;BME280;35491;49.142;9.210;2023-02-28T09:53:02;100799.31;;;3.35;48.96
49585;BME280;35491;49.142;9.210;2023-02-28T09:54:09;100798.97;;;3.41;48.55
49585;BME280;35491;49.142;9.210;2023-02-28T09:55:20;100802.56;;;3.40;48.39
49585;BME280;35491;49.142;9.210;2023-02-28T09:56:27;100798.97;;;3.41;48.22
49585;BME280;35491;49.142;9.210;2023-02-28T09:57:31;100795.94;;;3.49;48.37
49585;BME280;35491;49.142;9.210;2023-02-28T09:58:38;100793.19;;;3.50;48.23
49585;BME280;35491;49.142;9.210;2023-02-28T09:59:48;100796.97;;;3.46;48.46
49585;BME280;35491;49.142;9.210;2023-02-28T10:00:56;100799.72;;;3.61;48.30
49585;BME280;35491;49.142;9.210;2023-02-28T10:02:04;100807.09;;;3.71;47.82
49585;BME280;35491;49.142;9.210;2023-02-28T10:03:28;100799.66;;;3.62;47.76
49585;BME280;35491;49.142;9.210;2023-02-28T10:04:46;100796.84;;;3.81;47.88
49585;BME280;35491;49.142;9.210;2023-02-28T10:05:56;100793.81;;;3.89;47.68
49585;BME280;35491;49.142;9.210;2023-02-28T10:07:05;100799.59;;;3.80;47.71
49585;BME280;35491;49.142;9.210;2023-02-28T10:08:21;100800.59;;;3.61;47.75
49585;BME280;35491;49.142;9.210;2023-02-28T10:09:26;100812.28;;;3.39;48.61
49585;BME280;35491;49.142;9.210;2023-02-28T10:10:35;100809.66;;;3.22;48.83
49585;BME280;35491;49.142;9.210;2023-02-28T10:11:39;100804.94;;;3.11;49.05
49585;BME280;35491;49.142;9.210;2023-02-28T10:12:44;100808.78;;;3.21;49.19
49585;BME280;35491;49.142;9.210;2023-02-28T10:13:50;100809.63;;;3.39;48.82
49585;BME280;35491;49.142;9.210;2023-02-28T10:14:56;100804.59;;;3.35;48.51
49585;BME280;35491;49.142;9.210;2023-02-28T10:16:04;100817.03;;;3.33;48.45
49585;BME280;35491;49.142;9.210;2023-02-28T10:17:10;100799.16;;;3.38;48.39
49585;BME280;35491;49.142;9.210;2023-02-28T10:18:14;100808.91;;;3.53;48.19
49585;BME280;35491;49.142;9.210;2023-02-28T10:19:22;100805.72;;;3.80;48.02
49585;BME280;35491;49.142;9.210;2023-02-28T10:20:30;100810.03;;;3.65;47.85
49585;BME280;35491;49.142;9.210;2023-02-28T10:21:35;100804.31;;;3.57;48.08
49585;BME280;35491;49.142;9.210;2023-02-28T10:22:41;100806.72;;;3.62;48.21
49585;BME280;35491;49.142;9.210;2023-02-28T10:23:59;100800.81;;;3.56;47.86
49585;BME280;35491;49.142;9.210;2023-02-28T10:25:05;100802.28;;;3.62;48.02
49585;BME280;35491;49.142;9.210;2023-02-28T10:26:19;100801.72;;;3.73;47.66
49585;BME280;35491;49.142;9.210;2023-02-28T10:27:25;100799.13;;;3.55;47.71
49585;BME280;35491;49.142;9.210;2023-02-28T10:28:26;100808.63;;;3.42;48.50
49585;BME280;35491;49.142;9.210;2023-02-28T10:29:32;100815.94;;;3.37;48.44
49585;BME280;35491;49.142;9.210;2023-02-28T10:30:33;100805.91;;;3.26;48.64
49585;BME280;35491;49.142;9.210;2023-02-28T10:31:38;100806.56;;;3.14;48.89
49585;BME280;35491;49.142;9.210;2023-02-28T10:32:49;100808.50;;;3.27;49.27
49585;BME280;35491;49.142;9.210;2023-02-28T10:33:51;100808.56;;;3.43;48.76
49585;BME280;35491;49.142;9.210;2023-02-28T10:34:59;100823.06;;;3.52;48.23
49585;BME280;35491;49.142;9.210;2023-02-28T10:36:03;100811.56;;;3.53;47.48
49585;BME280;35491;49.142;9.210;2023-02-28T10:37:08;100818.44;;;3.40;47.54
49585;BME280;35491;49.142;9.210;2023-02-28T10:38:13;100811.88;;;3.47;47.79
49585;BME280;35491;49.142;9.210;2023-02-28T10:39:33;100815.81;;;3.56;48.03
49585;BME280;35491;49.142;9.210;2023-02-28T10:40:38;100806.91;;;3.74;47.53
49585;BME280;35491;49.142;9.210;2023-02-28T10:41:41;100804.63;;;3.84;47.13
49585;BME280;35491;49.142;9.210;2023-02-28T10:42:54;100803.78;;;3.84;46.92
49585;BME280;35491;49.142;9.210;2023-02-28T10:45:15;100805.16;;;3.91;46.93
49585;BME280;35491;49.142;9.210;2023-02-28T10:46:19;100799.25;;;3.86;46.54
49585;BME280;35491;49.142;9.210;2023-02-28T10:47:26;100802.16;;;3.81;46.69
49585;BME280;35491;49.142;9.210;2023-02-28T10:48:30;100805.28;;;3.72;46.60
49585;BME280;35491;49.142;9.210;2023-02-28T10:49:35;100803.78;;;3.84;46.71
49585;BME280;35491;49.142;9.210;2023-02-28T10:50:43;100801.56;;;3.92;46.60
49585;BME280;35491;49.142;9.210;2023-02-28T10:51:51;100807.47;;;3.97;46.43
49585;BME280;35491;49.142;9.210;2023-02-28T10:53:05;100803.41;;;4.24;46.46
49585;BME280;35491;49.142;9.210;2023-02-28T10:54:15;100802.69;;;4.52;46.27
49585;BME280;35491;49.142;9.210;2023-02-28T10:55:20;100798.91;;;4.72;45.32
49585;BME280;35491;49.142;9.210;2023-02-28T10:56:24;100800.38;;;4.62;44.76
49585;BME280;35491;49.142;9.210;2023-02-28T10:57:28;100791.72;;;4.58;44.86
49585;BME280;35491;49.142;9.210;2023-02-28T10:58:42;100789.28;;;4.39;45.36
49585;BME280;35491;49.142;9.210;2023-02-28T10:59:46;100803.56;;;4.20;45.63
49585;BME280;35491;49.142;9.210;2023-02-28T11:00:54;100797.06;;;4.26;46.17
49585;BME280;35491;49.142;9.210;2023-02-28T11:01:56;100796.19;;;4.26;45.95
49585;BME280;35491;49.142;9.210;2023-02-28T11:03:00;100794.00;;;4.34;45.79
49585;BME280;35491;49.142;9.210;2023-02-28T11:04:03;100793.38;;;4.29;45.63
49585;BME280;35491;49.142;9.210;2023-02-28T11:05:26;100798.78;;;4.11;46.13
49585;BME280;35491;49.142;9.210;2023-02-28T11:06:29;100798.25;;;4.04;45.97
49585;BME280;35491;49.142;9.210;2023-02-28T11:07:36;100793.47;;;4.11;46.29
49585;BME280;35491;49.142;9.210;2023-02-28T11:08:44;100794.31;;;4.28;46.00
49585;BME280;35491;49.142;9.210;2023-02-28T11:09:48;100790.31;;;4.20;45.97
49585;BME280;35491;49.142;9.210;2023-02-28T11:10:54;100792.47;;;4.30;45.74
49585;BME280;35491;49.142;9.210;2023-02-28T11:11:58;100788.25;;;4.26;45.66
49585;BME280;35491;49.142;9.210;2023-02-28T11:13:12;100786.59;;;4.25;45.75
49585;BME280;35491;49.142;9.210;2023-02-28T11:14:21;100786.22;;;4.31;45.87
49585;BME280;35491;49.142;9.210;2023-02-28T11:15:23;100778.28;;;4.31;45.73
49585;BME280;35491;49.142;9.210;2023-02-28T11:16:35;100785.28;;;4.16;46.10
49585;BME280;35491;49.142;9.210;2023-02-28T11:17:40;100780.78;;;4.18;46.24
49585;BME280;35491;49.142;9.210;2023-02-28T11:18:42;100783.22;;;4.37;46.14
49585;BME280;35491;49.142;9.210;2023-02-28T11:19:48;100781.19;;;4.26;46.11
49585;BME280;35491;49.142;9.210;2023-02-28T11:20:56;100791.88;;;4.09;45.78
49585;BME280;35491;49.142;9.210;2023-02-28T11:22:02;100778.63;;;3.93;46.16
49585;BME280;35491;49.142;9.210;2023-02-28T11:23:10;100771.34;;;3.80;46.48
49585;BME280;35491;49.142;9.210;2023-02-28T11:24:14;100781.34;;;3.75;46.69
49585;BME280;35491;49.142;9.210;2023-02-28T11:25:23;100781.47;;;3.72;47.21
49585;BME280;35491;49.142;9.210;2023-02-28T11:26:36;100774.19;;;3.77;47.28
49585;BME280;35491;49.142;9.210;2023-02-28T11:27:42;100783.78;;;3.78;47.07
49585;BME280;35491;49.142;9.210;2023-02-28T11:28:49;100790.34;;;3.71;47.29
49585;BME280;35491;49.142;9.210;2023-02-28T11:30:11;100781.41;;;3.73;47.33
49585;BME280;35491;49.142;9.210;2023-02-28T11:31:23;100772.72;;;3.71;47.48
49585;BME280;35491;49.142;9.210;2023-02-28T11:32:30;100773.56;;;3.72;47.42
49585;BME280;35491;49.142;9.210;2023-02-28T11:33:40;100770.66;;;3.77;47.54
49585;BME280;35491;49.142;9.210;2023-02-28T11:34:46;100768.78;;;3.79;47.29
49585;BME280;35491;49.142;9.210;2023-02-28T11:35:47;100774.75;;;3.82;47.26
49585;BME280;35491;49.142;9.210;2023-02-28T11:36:52;100779.63;;;3.74;47.36
49585;BME280;35491;49.142;9.210;2023-02-28T11:37:54;100761.69;;;3.63;47.47
49585;BME280;35491;49.142;9.210;2023-02-28T11:39:04;100776.84;;;3.59;47.99
49585;BME280;35491;49.142;9.210;2023-02-28T11:40:12;100775.06;;;3.60;48.05
49585;BME280;35491;49.142;9.210;2023-02-28T11:42:43;100768.41;;;3.69;47.68
49585;BME280;35491;49.142;9.210;2023-02-28T11:45:19;100788.28;;;3.60;48.12
49585;BME280;35491;49.142;9.210;2023-02-28T11:46:27;100781.59;;;3.70;47.93
49585;BME280;35491;49.142;9.210;2023-02-28T11:47:43;100786.44;;;3.62;47.95
49585;BME280;35491;49.142;9.210;2023-02-28T11:48:50;100779.97;;;3.68;48.11
49585;BME280;35491;49.142;9.210;2023-02-28T11:49:58;100779.47;;;3.77;47.87
49585;BME280;35491;49.142;9.210;2023-02-28T11:51:11;100775.69;;;3.81;47.65
49585;BME280;35491;49.142;9.210;2023-02-28T11:52:19;100777.91;;;3.73;47.69
49585;BME280;35491;49.142;9.210;2023-02-28T11:53:28;100769.97;;;3.73;47.92
49585;BME280;35491;49.142;9.210;2023-02-28T11:54:45;100772.91;;;3.84;47.74
49585;BME280;35491;49.142;9.210;2023-02-28T11:55:54;100763.59;;;3.93;47.75
49585;BME280;35491;49.142;9.210;2023-02-28T11:57:03;100767.34;;;3.89;47.04
49585;BME280;35491;49.142;9.210;2023-02-28T11:58:17;100763.25;;;3.83;47.14
49585;BME280;35491;49.142;9.210;2023-02-28T11:59:37;100764.97;;;3.84;47.09
49585;BME280;35491;49.142;9.210;2023-02-28T12:00:50;100752.50;;;3.86;47.50
49585;BME280;35491;49.142;9.210;2023-02-28T12:02:04;100759.94;;;3.96;47.27
49585;BME280;35491;49.142;9.210;2023-02-28T12:03:14;100758.81;;;4.00;47.25
49585;BME280;35491;49.142;9.210;2023-02-28T12:04:22;100763.16;;;4.01;47.16
49585;BME280;35491;49.142;9.210;2023-02-28T12:05:29;100760.53;;;4.01;46.91
49585;BME280;35491;49.142;9.210;2023-02-28T12:06:37;100756.44;;;3.95;47.45
49585;BME280;35491;49.142;9.210;2023-02-28T12:07:47;100748.66;;;4.08;47.36
49585;BME280;35491;49.142;9.210;2023-02-28T12:08:58;100764.63;;;4.22;47.20
49585;BME280;35491;49.142;9.210;2023-02-28T12:10:12;100768.00;;;4.41;46.81
49585;BME280;35491;49.142;9.210;2023-02-28T12:11:26;100757.41;;;4.41;46.02
49585;BME280;35491;49.142;9.210;2023-02-28T12:12:34;100768.00;;;4.41;45.69
49585;BME280;35491;49.142;9.210;2023-02-28T12:13:42;100764.25;;;4.45;46.07
49585;BME280;35491;49.142;9.210;2023-02-28T12:14:54;100758.28;;;4.41;46.16
49585;BME280;35491;49.142;9.210;2023-02-28T12:17:32;100757.41;;;4.41;46.17
49585;BME280;35491;49.142;9.210;2023-02-28T12:18:43;100756.81;;;4.51;46.41
49585;BME280;35491;49.142;9.210;2023-02-28T12:19:51;100762.78;;;4.55;45.90
49585;BME280;35491;49.142;9.210;2023-02-28T12:21:01;100759.22;;;4.56;45.80
49585;BME280;35491;49.142;9.210;2023-02-28T12:22:15;100752.06;;;4.42;45.46
49585;BME280;35491;49.142;9.210;2023-02-28T12:24:39;100745.59;;;4.32;46.09
49585;BME280;35491;49.142;9.210;2023-02-28T12:25:50;100757.41;;;4.41;45.79
49585;BME280;35491;49.142;9.210;2023-02-28T12:27:00;100749.94;;;4.33;45.80
49585;BME280;35491;49.142;9.210;2023-02-28T12:28:03;100745.84;;;4.27;45.75
49585;BME280;35491;49.142;9.210;2023-02-28T12:29:10;100740.03;;;4.20;46.08
49585;BME280;35491;49.142;9.210;2023-02-28T12:30:17;100750.63;;;4.20;46.08
49585;BME280;35491;49.142;9.210;2023-02-28T12:31:24;100748.38;;;4.29;46.17
49585;BME280;35491;49.142;9.210;2023-02-28T12:32:30;100751.44;;;4.37;46.02
49585;BME280;35491;49.142;9.210;2023-02-28T12:33:36;100755.38;;;4.46;45.75
49585;BME280;35491;49.142;9.210;2023-02-28T12:34:41;100745.63;;;4.46;45.60
49585;BME280;35491;49.142;9.210;2023-02-28T12:35:47;100747.16;;;4.50;45.57
49585;BME280;35491;49.142;9.210;2023-02-28T12:36:50;100738.34;;;4.50;45.49
49585;BME280;35491;49.142;9.210;2023-02-28T12:37:56;100746.22;;;4.51;45.53
49585;BME280;35491;49.142;9.210;2023-02-28T12:38:59;100737.16;;;4.56;45.40
49585;BME280;35491;49.142;9.210;2023-02-28T12:40:05;100742.66;;;4.52;45.37
49585;BME280;35491;49.142;9.210;2023-02-28T12:41:11;100751.94;;;4.60;45.44
49585;BME280;35491;49.142;9.210;2023-02-28T12:42:17;100740.81;;;4.69;45.27
49585;BME280;35491;49.142;9.210;2023-02-28T12:43:20;100734.47;;;4.72;45.14
49585;BME280;35491;49.142;9.210;2023-02-28T12:44:27;100744.84;;;4.60;45.37
49585;BME280;35491;49.142;9.210;2023-02-28T12:45:36;100742.38;;;4.57;45.54
49585;BME280;35491;49.142;9.210;2023-02-28T12:46:43;100740.41;;;4.61;45.44
49585;BME280;35491;49.142;9.210;2023-02-28T12:47:45;100740.03;;;4.67;45.72
49585;BME280;35491;49.142;9.210;2023-02-28T12:48:52;100722.00;;;4.74;45.16
49585;BME280;35491;49.142;9.210;2023-02-28T12:49:56;100742.69;;;4.67;45.27
49585;BME280;35491;49.142;9.210;2023-02-28T12:51:01;100730.03;;;4.72;45.25
49585;BME280;35491;49.142;9.210;2023-02-28T12:52:03;100738.06;;;4.71;45.53
49585;BME280;35491;49.142;9.210;2023-02-28T12:53:13;100731.72;;;4.73;45.38
49585;BME280;35491;49.142;9.210;2023-02-28T12:54:17;100733.63;;;4.71;45.35
49585;BME280;35491;49.142;9.210;2023-02-28T12:55:25;100735.41;;;4.71;45.41
49585;BME280;35491;49.142;9.210;2023-02-28T12:56:38;100727.97;;;4.77;45.28
49585;BME280;35491;49.142;9.210;2023-02-28T12:57:43;100726.41;;;4.73;45.43
49585;BME280;35491;49.142;9.210;2023-02-28T12:58:53;100726.34;;;4.75;44.75
49585;BME280;35491;49.142;9.210;2023-02-28T12:59:56;100718.69;;;4.70;45.09
49585;BME280;35491;49.142;9.210;2023-02-28T13:02:20;100719.56;;;4.55;45.43
49585;BME280;35491;49.142;9.210;2023-02-28T13:03:33;100721.19;;;4.57;45.50
49585;BME280;35491;49.142;9.210;2023-02-28T13:06:05;100728.44;;;4.53;45.74
49585;BME280;35491;49.142;9.210;2023-02-28T13:07:15;100719.75;;;4.51;45.50
49585;BME280;35491;49.142;9.210;2023-02-28T13:08:39;100728.41;;;4.69;45.51
49585;BME280;35491;49.142;9.210;2023-02-28T13:09:51;100722.75;;;4.76;45.29
49585;BME280;35491;49.142;9.210;2023-02-28T13:10:53;100724.53;;;4.75;45.55
49585;BME280;35491;49.142;9.210;2023-02-28T13:12:00;100718.19;;;4.78;45.28
49585;BME280;35491;49.142;9.210;2023-02-28T13:13:04;100720.19;;;4.74;44.90
49585;BME280;35491;49.142;9.210;2023-02-28T13:14:06;100721.13;;;4.73;44.97
49585;BME280;35491;49.142;9.210;2023-02-28T13:15:20;100723.78;;;4.73;45.22
49585;BME280;35491;49.142;9.210;2023-02-28T13:16:25;100718.06;;;4.65;44.88
49585;BME280;35491;49.142;9.210;2023-02-28T13:17:26;100722.81;;;4.60;45.12
49585;BME280;35491;49.142;9.210;2023-02-28T13:18:32;100721.09;;;4.59;45.39
49585;BME280;35491;49.142;9.210;2023-02-28T13:19:34;100724.91;;;4.69;45.32
49585;BME280;35491;49.142;9.210;2023-02-28T13:20:47;100720.78;;;4.79;44.87
49585;BME280;35491;49.142;9.210;2023-02-28T13:21:54;100718.69;;;4.70;45.10
49585;BME280;35491;49.142;9.210;2023-02-28T13:22:59;100722.66;;;4.77;44.99
49585;BME280;35491;49.142;9.210;2023-02-28T13:24:02;100725.97;;;4.81;45.15
49585;BME280;35491;49.142;9.210;2023-02-28T13:27:46;100718.91;;;4.81;45.15
49585;BME280;35491;49.142;9.210;2023-02-28T13:28:58;100715.69;;;4.91;45.15
49585;BME280;35491;49.142;9.210;2023-02-28T13:30:00;100718.81;;;4.97;45.23
49585;BME280;35491;49.142;9.210;2023-02-28T13:31:04;100712.41;;;5.02;44.67
49585;BME280;35491;49.142;9.210;2023-02-28T13:33:25;100716.63;;;4.90;44.62
49585;BME280;35491;49.142;9.210;2023-02-28T13:34:29;100711.34;;;4.90;45.07
49585;BME280;35491;49.142;9.210;2023-02-28T13:35:35;100707.38;;;4.97;44.49
49585;BME280;35491;49.142;9.210;2023-02-28T13:36:40;100726.91;;;4.80;44.73
49585;BME280;35491;49.142;9.210;2023-02-28T13:37:43;100714.28;;;4.85;44.58
49585;BME280;35491;49.142;9.210;2023-02-28T13:38:47;100708.88;;;4.87;44.66
49585;BME280;35491;49.142;9.210;2023-02-28T13:39:52;100713.06;;;4.91;44.90
49585;BME280;35491;49.142;9.210;2023-02-28T13:40:56;100713.72;;;4.94;44.82
49585;BME280;35491;49.142;9.210;2023-02-28T13:44:03;100705.84;;;4.93;44.67
49585;BME280;35491;49.142;9.210;2023-02-28T13:46:29;100710.47;;;4.89;44.70
49585;BME280;35491;49.142;9.210;2023-02-28T13:47:30;100712.28;;;4.89;44.64
49585;BME280;35491;49.142;9.210;2023-02-28T13:48:35;100721.16;;;4.88;44.77
49585;BME280;35491;49.142;9.210;2023-02-28T13:49:40;100719.19;;;4.91;44.42
49585;BME280;35491;49.142;9.210;2023-02-28T13:50:43;100713.44;;;4.99;44.60
49585;BME280;35491;49.142;9.210;2023-02-28T13:51:48;100705.28;;;5.02;44.45
49585;BME280;35491;49.142;9.210;2023-02-28T13:52:53;100712.00;;;4.93;44.58
49585;BME280;35491;49.142;9.210;2023-02-28T13:54:02;100705.09;;;4.91;44.55
49585;BME280;35491;49.142;9.210;2023-02-28T13:55:17;100710.03;;;4.97;44.61
49585;BME280;35491;49.142;9.210;2023-02-28T13:56:27;100707.94;;;4.88;44.58
49585;BME280;35491;49.142;9.210;2023-02-28T13:57:37;100707.75;;;4.91;44.72
49585;BME280;35491;49.142;9.210;2023-02-28T13:58:48;100707.53;;;4.94;44.31
49585;BME280;35491;49.142;9.210;2023-02-28T14:00:05;100708.69;;;4.90;44.38
49585;BME280;35491;49.142;9.210;2023-02-28T14:02:34;100714.09;;;5.03;43.88
49585;BME280;35491;49.142;9.210;2023-02-28T14:03:54;100718.47;;;5.04;43.88
49585;BME280;35491;49.142;9.210;2023-02-28T14:05:04;100712.50;;;5.00;44.29
49585;BME280;35491;49.142;9.210;2023-02-28T14:06:18;100706.16;;;5.03;44.20
49585;BME280;35491;49.142;9.210;2023-02-28T14:07:25;100716.09;;;5.13;44.32
49585;BME280;35491;49.142;9.210;2023-02-28T14:08:27;100713.25;;;5.17;43.78
49585;BME280;35491;49.142;9.210;2023-02-28T14:09:32;100709.28;;;5.09;43.85
49585;BME280;35491;49.142;9.210;2023-02-28T14:10:39;100714.00;;;5.04;44.10
49585;BME280;35491;49.142;9.210;2023-02-28T14:11:45;100712.50;;;5.00;44.21
49585;BME280;35491;49.142;9.210;2023-02-28T14:16:47;100709.25;;;4.95;44.59
49585;BME280;35491;49.142;9.210;2023-02-28T14:17:59;100700.91;;;5.01;44.66
49585;BME280;35491;49.142;9.210;2023-02-28T14:19:01;100704.00;;;5.09;44.88
49585;BME280;35491;49.142;9.210;2023-02-28T14:20:12;100703.50;;;5.17;44.54
49585;BME280;35491;49.142;9.210;2023-02-28T14:21:20;100705.09;;;5.20;44.68
49585;BME280;35491;49.142;9.210;2023-02-28T14:22:38;100696.22;;;5.21;44.57
49585;BME280;35491;49.142;9.210;2023-02-28T14:23:56;100699.34;;;5.27;44.38
49585;BME280;35491;49.142;9.210;2023-02-28T14:25:05;100709.09;;;5.27;44.43
49585;BME280;35491;49.142;9.210;2023-02-28T14:26:19;100708.72;;;5.33;44.47
49585;BME280;35491;49.142;9.210;2023-02-28T14:27:32;100694.34;;;5.37;44.45
49585;BME280;35491;49.142;9.210;2023-02-28T14:28:50;100709.19;;;5.40;43.95
49585;BME280;35491;49.142;9.210;2023-02-28T14:30:13;100706.25;;;5.44;43.96
49585;BME280;35491;49.142;9.210;2023-02-28T14:31:23;100711.56;;;5.44;43.75
49585;BME280;35491;49.142;9.210;2023-02-28T14:32:35;100699.91;;;5.47;43.56
49585;BME280;35491;49.142;9.210;2023-02-28T14:33:42;100708.63;;;5.49;43.63
49585;BME280;35491;49.142;9.210;2023-02-28T14:34:49;100707.75;;;5.49;43.40
49585;BME280;35491;49.142;9.210;2023-02-28T14:36:03;100700.78;;;5.47;43.45
49585;BME280;35491;49.142;9.210;2023-02-28T14:37:10;100703.91;;;5.40;43.66
49585;BME280;35491;49.142;9.210;2023-02-28T14:38:20;100705.31;;;5.45;43.09
49585;BME280;35491;49.142;9.210;2023-02-28T14:39:24;100702.38;;;5.36;43.20
49585;BME280;35491;49.142;9.210;2023-02-28T14:40:32;100698.41;;;5.28;43.61
49585;BME280;35491;49.142;9.210;2023-02-28T14:41:35;100701.03;;;5.28;43.39
49585;BME280;35491;49.142;9.210;2023-02-28T14:42:57;100693.56;;;5.35;43.50
49585;BME280;35491;49.142;9.210;2023-02-28T14:44:01;100701.91;;;5.29;43.63
49585;BME280;35491;49.142;9.210;2023-02-28T14:45:05;100700.09;;;5.29;43.71
49585;BME280;35491;49.142;9.210;2023-02-28T14:46:10;100692.91;;;5.31;43.26
49585;BME280;35491;49.142;9.210;2023-02-28T14:47:21;100696.22;;;5.35;43.06
49585;BME280;35491;49.142;9.210;2023-02-28T14:48:29;100695.47;;;5.33;43.44
49585;BME280;35491;49.142;9.210;2023-02-28T14:49:35;100705.97;;;5.35;43.49
49585;BME280;35491;49.142;9.210;2023-02-28T14:50:51;100694.34;;;5.37;43.59
49585;BME280;35491;49.142;9.210;2023-02-28T14:52:01;100696.50;;;5.30;43.25
49585;BME280;35491;49.142;9.210;2023-02-28T14:53:09;100697.53;;;5.42;43.45
49585;BME280;35491;49.142;9.210;2023-02-28T14:54:14;100699.50;;;5.53;43.18
49585;BME280;35491;49.142;9.210;2023-02-28T14:55:19;100697.84;;;5.52;42.75
49585;BME280;35491;49.142;9.210;2023-02-28T14:56:21;100696.97;;;5.52;43.06
49585;BME280;35491;49.142;9.210;2023-02-28T14:57:28;100699.78;;;5.49;43.06
49585;BME280;35491;49.142;9.210;2023-02-28T14:58:40;100693.00;;;5.44;43.07
49585;BME280;35491;49.142;9.210;2023-02-28T14:59:41;100699.06;;;5.46;43.20
49585;BME280;35491;49.142;9.210;2023-02-28T15:01:01;100698.47;;;5.41;43.38
49585;BME280;35491;49.142;9.210;2023-02-28T15:02:15;100698.13;;;5.47;43.30
49585;BME280;35491;49.142;9.210;2023-02-28T15:03:18;100699.25;;;5.43;43.25
49585;BME280;35491;49.142;9.210;2023-02-28T15:04:25;100696.69;;;5.42;43.59
49585;BME280;35491;49.142;9.210;2023-02-28T15:05:29;100696.03;;;5.53;43.56
49585;BME280;35491;49.142;9.210;2023-02-28T15:06:33;100697.84;;;5.52;43.51
49585;BME280;35491;49.142;9.210;2023-02-28T15:09:14;100696.28;;;5.62;43.54
49585;BME280;35491;49.142;9.210;2023-02-28T15:11:32;100706.59;;;5.67;43.09
49585;BME280;35491;49.142;9.210;2023-02-28T15:12:36;100702.44;;;5.63;43.33
49585;BME280;35491;49.142;9.210;2023-02-28T15:13:51;100704.91;;;5.52;43.33
49585;BME280;35491;49.142;9.210;2023-02-28T15:14:53;100701.72;;;5.46;43.31
49585;BME280;35491;49.142;9.210;2023-02-28T15:16:05;100701.13;;;5.41;43.39
49585;BME280;35491;49.142;9.210;2023-02-28T15:17:25;100705.78;;;5.38;43.38
49585;BME280;35491;49.142;9.210;2023-02-28T15:20:10;100711.38;;;5.47;43.27
49585;BME280;35491;49.142;9.210;2023-02-28T15:21:15;100700.78;;;5.47;43.45
49585;BME280;35491;49.142;9.210;2023-02-28T15:22:24;100703.44;;;5.47;43.22
49585;BME280;35491;49.142;9.210;2023-02-28T15:23:29;100707.75;;;5.49;43.28
49585;BME280;35491;49.142;9.210;2023-02-28T15:24:40;100706.81;;;5.50;43.13
49585;BME280;35491;49.142;9.210;2023-02-28T15:25:45;100708.81;;;5.46;43.42
49585;BME280;35491;49.142;9.210;2023-02-28T15:26:53;100703.50;;;5.46;42.88
49585;BME280;35491;49.142;9.210;2023-02-28T15:29:50;100706.34;;;5.57;43.10
49585;BME280;35491;49.142;9.210;2023-02-28T15:34:18;100704.81;;;5.53;43.13
49585;BME280;35491;49.142;9.210;2023-02-28T15:36:46;100712.31;;;5.61;42.92
49585;BME280;35491;49.142;9.210;2023-02-28T15:37:53;100701.88;;;5.58;43.26
49585;BME280;35491;49.142;9.210;2023-02-28T15:42:12;100706.44;;;5.41;42.70
49585;BME280;35491;49.142;9.210;2023-02-28T16:04:35;100709.38;;;5.08;44.97
49585;BME280;35491;49.142;9.210;2023-02-28T16:05:39;100703.69;;;4.99;45.13
49585;BME280;35491;49.142;9.210;2023-02-28T16:06:42;100706.31;;;4.99;45.21
49585;BME280;35491;49.142;9.210;2023-02-28T16:07:46;100702.06;;;4.97;45.47
49585;BME280;35491;49.142;9.210;2023-02-28T16:08:49;100701.19;;;4.96;45.46
49585;BME280;35491;49.142;9.210;2023-02-28T16:09:54;100701.13;;;4.98;45.42
49585;BME280;35491;49.142;9.210;2023-02-28T16:10:56;100703.56;;;5.01;45.54
49585;BME280;35491;49.142;9.210;2023-02-28T16:12:00;100704.53;;;5.00;45.22
49585;BME280;35491;49.142;9.210;2023-02-28T16:13:05;100713.34;;;5.00;45.47